Nimitz, WV (25978)

3:31 AM EDT on July 25, 2014 (GMT -0400)
Bluestone Dam - Meador (KWVHINTO3) Elev 1394 ft | 37.65 °N, 80.88 °W | Change Station

Current weather conditions updated 1 minute ago

Overcast
Overcast
61.3 °F
Feels Like 61.3 °F
N
1.6
Wind Variable Wind from NW
Gusts 2.2 mph

Today is forecast to be Cooler than yesterday.

Today
High -- | Low -- °F
--% Chance of Precip.
Yesterday
High -- | Low -- °F
Precip. -- in
6:21 AM 8:38 PM
Waning Crescent, 2% visible
Pressure 30.09 in
Visibility 5.0 miles
Clouds Overcast 500 ft
Dew Point 61 °F
Humidity 98%
Rainfall 0.00 in
Snow Depth Not available.
UV 0 out of 12
Pollen .60 out of 12
Air Quality Not available.
Flu Activity Not available.
SPECI KBKW 250727Z AUTO 00000KT 5SM BR OVC005 15/14 A3009 RMK AO2 T01500139 TSNO

More Conditions Fewer Conditions

Pressure 30.09 in
Visibility 5.0 miles
Clouds Overcast 500 ft
Dew Point 61 °F
Humidity 98%
Rainfall 0.00 in
Snow Depth Not available.
UV 0 out of 12
Pollen .60 out of 12
Air Quality Not available.
Flu Activity Not available.
SPECI KBKW 250727Z AUTO 00000KT 5SM BR OVC005 15/14 A3009 RMK AO2 T01500139 TSNO

More Conditions Fewer Conditions

10-Day Weather Forecast

Almanac

Astronomy

Jul. 25, 2014 Rise Set
Actual Time 6:21 AM EDT 8:38 PM EDT
Civil Twilight 5:52 AM EDT 9:07 PM EDT
Nautical Twilight 5:15 AM EDT 9:44 PM EDT
Astronomical Twilight 4:35 AM EDT 10:23 PM EDT
Moon 5:19 AM EDT 7:35 PM EDT
Length of Visible Light 15h 15m
Length of Day
14h 16m
Tomorrow will be 1m 37s shorter.
Waning Crescent, 2% of the Moon is Illuminated
Today
Waning Crescent
Jul 26
New
Aug 3
First Quarter
Aug 10
Full
Aug 17
Last Quarter

Today's Extremes

State Highs State Lows

Community

WunderPhotos

Upload Photos

1,737,272 photos uploaded!

Nearby

Snow Depth

Station Depth Elevation
No new snow has been reported.

Earthquake Activity

City Distance Mag. Time & Date
No recent earthquake activity has been reported nearby.
Minimum magnitude displayed is 2.5.

Coastal Water Temperatures

Place Temperature
No Stations Reporting

Nearby Weather Stations

Station Location Temp. Dew Point Humidity Wind Precip. Elev Updated Type
Bluestone Dam - Meador, Hinton, WV 61.3 °F 61 °F 98% NW  at  1.6 mph 0.00 in / hr 1394 ft 3:30 AM EDT Normal
ADAIR RIDGE ROAD, Ballard, WV 64.6 °F 59 °F 83% NNW  at  0.0 mph 0.00 in / hr 2053 ft 12:51 AM EDT Rapid Fire
Oxley Hollow Road, Princeton, WV 56.8 °F 56 °F 99% North  at  0.0 mph 0.00 in / hr 2411 ft 3:28 AM EDT Normal
Blue Sulphur Springs, WV 56.5 °F 55 °F 95% NW  at  0.0 mph 0.00 in / hr 1719 ft 3:31 AM EDT Rapid Fire
Narrows, VA, Narrows, VA 62.3 °F 60 °F 91% North  at  0.0 mph 0.00 in / hr 1594 ft 3:28 AM EDT Normal
Flat Top Lake, Ghent, WV 57.4 °F 57 °F 98% SSW  at  0.0 mph - / hr 2969 ft 3:19 AM EDT Normal
Cool Ridge, Raleigh Co., WV 57.3 °F 57 °F 100% NNW  at  0.0 mph 0.00 in / hr 2965 ft 3:31 AM EDT Rapid Fire

Show More Stations Show Fewer Stations